Airfield :
LOGIN :

Register | Disclaimer

   EN    FR    IT 

 










Legend :    VFR   Marginal VFR   IFR   Intensive IFR   Very Intensive IFR
Visi :
Ceiling :
>= 8 km
>= 3000ft
5 to 8 km
1000 to 3000 ft
1500m to 5 km
500 to 1000 ft
800 to 1500m
200 to 500 ft
< 800m
< 200 ft
Symbols :   Thunderstorms  Fog  Heavy snow  Heavy precipitations  Wind > 20 kt
SIGMETs :     Misc.  Thunderstorms  Icing  Turbulence  Mountain Waves  Volcanic Ashes







- Airport Elevation : 138 ft
- IATA code : BIO


LEBB - Bilbao

CURRENT METAR :
  • 201730Z 34006KT 300V010 9999 FEW025 25/16 Q1021 NOSIG

EXPIRED METARs :
  • 201700Z 34006KT 290V010 9999 FEW030 25/16 Q1021 NOSIG
  • 201630Z 34006KT 280V030 9999 FEW030 25/16 Q1021 NOSIG
  • 201600Z 02007KT 340V050 9999 FEW030 26/17 Q1021 NOSIG
  • 201530Z 36006KT 320V060 9999 FEW030 26/18 Q1021 NOSIG
  • 201500Z 36007KT 320V030 9999 FEW030 26/18 Q1021 NOSIG

TAF TAF LEBB
Valid from the 20 at 18:00 until the 21 at 18:00 UTC


201700Z 2018/2118 36010KT CAVOK TX29/2115Z TN16/2106Z
BECMG 2018/2022 VRB05KT
BECMG 2110/2113 01010KT
PROB30
TEMPO 2100/2106 3000 BR BKN010
No reported NOTAMs for that airfield.
1 SIGMET reported for the Madrid FIR (LECM) :
 
Embedded thunderstorms
LECM SIGMET 2 VALID 201630/201830 LEVA
LECM MADRID FIR/UIR EMBD TS OBS AT 1614Z W OF LINE N3716 W00416 - N3855 W00415 TOP FL400 MOV NE NC=



MET'MAP, your aeronautical weather chart ! - Copyright ORBIFLY December 2007 - Disclaimer

ORBIFLY MET'MAP TEAM :

Programming & Development : Alexandra Zaïnal
Concept & Development : Baudouin d'Aumeries
Co-Development & Prog : Marc-Olivier Méhu
Technical & hardware support : Manuel Goepfert

Contact : metmap@orbifly.com




SOURCES & CREDITS :

   NOAA